Yankton, SD

6:02 PM CST on February 20, 2018 (GMT -0600)
Gurney Municipal

Weather History for KYKN - March, 2013

Change the Weather History Date:

Monday, March 11, 2013

  Actual Average Record
Temperature  
Mean Temperature 24 °F -  
Max Temperature 35 °F 45 °F 75 °F (2016)
Min Temperature 12 °F 21 °F -16 °F (1948)
Degree Days  
Heating Degree Days 42    
Moisture  
Dew Point 17 °F    
Average Humidity 76    
Maximum Humidity 92    
Minimum Humidity 48    
Precipitation  
Precipitation 0.00 in - - ()
Sea Level Pressure  
Sea Level Pressure 29.92 in    
Wind  
Wind Speed 12 mph (WNW)    
Max Wind Speed 18 mph    
Max Gust Speed 23 mph    
Visibility 10 miles    
Events      
Averages and records for this station are not official NWS values.
T = Trace of Precipitation, MM = Missing Value Source: NWS Daily Summary

Daily Weather History Graph

Daily Weather History Graph

Search for Another Location

Airport or City:

Trip Planner

Search our weather history database for the weather conditions in past years. The results will help you decide how hot, cold, wet, or windy it might be!

Date:

Astronomy

Mar. 11, 2013 Rise Set
Actual Time 7:48 AM CDT 7:31 PM CDT
Civil Twilight 7:19 AM CDT 7:59 PM CDT
Nautical Twilight 6:47 AM CDT 8:32 PM CDT
Astronomical Twilight 6:13 AM CDT 9:05 PM CDT
Moon 7:21 AM CDT (3/11) 7:46 PM CDT (3/11)
Length of Visible Light 12h 39m
Length of Day
11h 43m
Waning Crescent, 0% of the Moon is Illuminated
Mar 11
Waning Crescent
Mar 11
New
Mar 19
First Quarter
Mar 27
Full
Apr 2
Last Quarter

Hourly Weather History & Observations

Time (CDT) Temp. Windchill Dew Point Humidity Pressure Visibility Wind Dir Wind Speed Gust Speed Precip Events Conditions
12:35 AM 19.4 °F 6.0 °F 14.0 °F 80% 30.01 in 5.0 mi NNW 13.8 mph - N/A   Overcast
12:55 AM 19.4 °F 7.9 °F 15.8 °F 86% 30.00 in 9.0 mi NW 10.4 mph - N/A   Overcast
1:15 AM 19.4 °F 5.5 °F 14.0 °F 80% 29.99 in 10.0 mi NW 15.0 mph - N/A   Overcast
1:55 AM 19.4 °F 4.1 °F 14.0 °F 80% 29.99 in 10.0 mi WNW 18.4 mph 23.0 mph N/A   Overcast
2:15 AM 17.6 °F 1.7 °F 12.2 °F 79% 29.98 in 10.0 mi WNW 18.4 mph - N/A   Overcast
2:35 AM 17.6 °F 2.7 °F 12.2 °F 79% 29.98 in 10.0 mi NW 16.1 mph 19.6 mph N/A   Overcast
2:55 AM 17.6 °F 2.2 °F 12.2 °F 79% 29.99 in 10.0 mi NW 17.3 mph - N/A   Overcast
3:15 AM 17.6 °F 2.7 °F 12.2 °F 79% 29.98 in 10.0 mi NW 16.1 mph - N/A   Overcast
3:35 AM 17.6 °F 5.0 °F 12.2 °F 79% 29.97 in 10.0 mi NW 11.5 mph - N/A   Overcast
3:55 AM 17.6 °F 3.7 °F 12.2 °F 79% 29.96 in 10.0 mi NW 13.8 mph - N/A   Overcast
4:15 AM 15.8 °F 0.9 °F 12.2 °F 86% 29.96 in 10.0 mi NW 15.0 mph - N/A   Overcast
4:35 AM 15.8 °F 3.4 °F 12.2 °F 86% 29.95 in 10.0 mi NW 10.4 mph - N/A   Overcast
4:55 AM 15.8 °F 1.4 °F 12.2 °F 86% 29.95 in 10.0 mi WNW 13.8 mph - N/A   Overcast
5:15 AM 15.8 °F 2.1 °F 10.4 °F 79% 29.93 in 10.0 mi WNW 12.7 mph - N/A   Overcast
5:35 AM 14.0 °F -0.2 °F 10.4 °F 86% 29.94 in 10.0 mi WNW 12.7 mph - N/A   Partly Cloudy
5:55 AM 14.0 °F 0.5 °F 10.4 °F 86% 29.93 in 10.0 mi WNW 11.5 mph - N/A   Clear
6:15 AM 14.0 °F -1.4 °F 10.4 °F 86% 29.94 in 10.0 mi WNW 15.0 mph - N/A   Clear
6:35 AM 12.2 °F -3.1 °F 10.4 °F 92% 29.93 in 10.0 mi WNW 13.8 mph - N/A   Clear
6:55 AM 12.2 °F -1.8 °F 10.4 °F 92% 29.94 in 10.0 mi WNW 11.5 mph - N/A   Clear
7:15 AM 12.2 °F -3.7 °F 10.4 °F 92% 29.94 in 10.0 mi WNW 15.0 mph - N/A   Clear
7:35 AM 12.2 °F -4.3 °F 8.6 °F 85% 29.94 in 10.0 mi WNW 16.1 mph - N/A   Clear
7:55 AM 12.2 °F -1.0 °F 10.4 °F 92% 29.94 in 10.0 mi WNW 10.4 mph - N/A   Clear
8:15 AM 12.2 °F -1.0 °F 10.4 °F 92% 29.94 in 10.0 mi WNW 10.4 mph - N/A   Clear
8:35 AM 14.0 °F -0.8 °F 10.4 °F 86% 29.94 in 10.0 mi WNW 13.8 mph - N/A   Clear
8:55 AM 15.8 °F 0.3 °F 12.2 °F 86% 29.93 in 10.0 mi WNW 16.1 mph - N/A   Clear
9:15 AM 15.8 °F 0.9 °F 12.2 °F 86% 29.93 in 10.0 mi WNW 15.0 mph - N/A   Clear
9:35 AM 15.8 °F 2.7 °F 12.2 °F 86% 29.93 in 10.0 mi WNW 11.5 mph - N/A   Clear
9:55 AM 15.8 °F 1.4 °F 12.2 °F 86% 29.92 in 10.0 mi WNW 13.8 mph - N/A   Clear
10:15 AM 17.6 °F 4.3 °F 12.2 °F 79% 29.92 in 10.0 mi WNW 12.7 mph - N/A   Clear
10:35 AM 17.6 °F 4.3 °F 10.4 °F 73% 29.93 in 10.0 mi WNW 12.7 mph - N/A   Clear
10:55 AM 19.4 °F 7.9 °F 12.2 °F 74% 29.92 in 10.0 mi WNW 10.4 mph - N/A   Clear
11:15 AM 19.4 °F 6.0 °F 12.2 °F 74% 29.91 in 10.0 mi WNW 13.8 mph - N/A   Clear
11:35 AM 21.2 °F 9.5 °F 12.2 °F 68% 29.91 in 10.0 mi West 11.5 mph - N/A   Clear
11:55 AM 21.2 °F 11.7 °F 14.0 °F 74% 29.91 in 10.0 mi WNW 8.1 mph - N/A   Clear
12:15 PM 21.2 °F 12.6 °F 15.8 °F 80% 29.90 in 10.0 mi West 6.9 mph - N/A   Clear
12:35 PM 24.8 °F 15.3 °F 15.8 °F 69% 29.91 in 10.0 mi West 9.2 mph - N/A   Clear
12:55 PM 24.8 °F 16.9 °F 17.6 °F 74% 29.89 in 10.0 mi West 6.9 mph - N/A   Clear
1:15 PM 26.6 °F 18.2 °F 17.6 °F 69% 29.89 in 10.0 mi West 8.1 mph - N/A   Clear
1:35 PM 28.4 °F 21.2 °F 17.6 °F 64% 29.88 in 10.0 mi West 6.9 mph - N/A   Mostly Cloudy
1:55 PM 28.4 °F 19.7 °F 15.8 °F 59% 29.87 in 10.0 mi West 9.2 mph - N/A   Mostly Cloudy
2:15 PM 28.4 °F 21.2 °F 15.8 °F 59% 29.86 in 10.0 mi West 6.9 mph - N/A   Partly Cloudy
2:35 PM 30.2 °F 22.6 °F 17.6 °F 60% 29.85 in 10.0 mi West 8.1 mph - N/A   Clear
2:55 PM 30.2 °F 20.8 °F 19.4 °F 64% 29.85 in 10.0 mi West 11.5 mph - N/A   Partly Cloudy
3:15 PM 32.0 °F 23.6 °F 19.4 °F 60% 29.85 in 10.0 mi West 10.4 mph 16.1 mph N/A   Mostly Cloudy
3:35 PM 32.0 °F 25.6 °F 17.6 °F 55% 29.85 in 10.0 mi West 6.9 mph - N/A   Mostly Cloudy
3:55 PM 32.0 °F - 19.4 °F 60% 29.84 in 10.0 mi Calm Calm - N/A   Partly Cloudy
4:15 PM 33.8 °F 28.6 °F 19.4 °F 56% 29.84 in 10.0 mi WNW 5.8 mph - N/A   Clear
4:35 PM 33.8 °F 27.0 °F 19.4 °F 56% 29.85 in 10.0 mi WNW 8.1 mph - N/A   Clear
4:55 PM 35.6 °F 28.0 °F 19.4 °F 52% 29.85 in 10.0 mi West 10.4 mph - N/A   Clear
5:15 PM 35.6 °F 29.9 °F 21.2 °F 56% 29.85 in 10.0 mi West 6.9 mph - N/A   Clear
5:35 PM 35.6 °F 28.0 °F 17.6 °F 48% 29.85 in 10.0 mi West 10.4 mph - N/A   Clear
5:55 PM 35.6 °F 28.0 °F 21.2 °F 56% 29.86 in 10.0 mi WNW 10.4 mph - N/A   Clear
6:15 PM 35.6 °F 29.9 °F 21.2 °F 56% 29.86 in 10.0 mi WNW 6.9 mph - N/A   Clear
6:35 PM 35.6 °F 29.9 °F 23.0 °F 60% 29.87 in 10.0 mi WNW 6.9 mph - N/A   Clear
6:55 PM 35.6 °F 28.6 °F 21.2 °F 56% 29.87 in 10.0 mi NW 9.2 mph - N/A   Clear
7:15 PM 33.8 °F 27.7 °F 24.8 °F 70% 29.89 in 10.0 mi WNW 6.9 mph - N/A   Partly Cloudy
7:35 PM 33.8 °F 27.7 °F 24.8 °F 70% 29.90 in 10.0 mi West 6.9 mph - N/A   Clear
7:55 PM 32.0 °F 26.4 °F 24.8 °F 75% 29.91 in 10.0 mi WNW 5.8 mph - N/A   Clear
8:15 PM 30.2 °F 23.4 °F 24.8 °F 80% 29.92 in 10.0 mi WNW 6.9 mph - N/A   Clear
8:35 PM 30.2 °F 21.9 °F 24.8 °F 80% 29.92 in 10.0 mi WNW 9.2 mph - N/A   Clear
8:55 PM 30.2 °F 23.4 °F 24.8 °F 80% 29.92 in 10.0 mi WNW 6.9 mph - N/A   Clear
9:15 PM 30.2 °F 25.4 °F 24.8 °F 80% 29.94 in 10.0 mi WNW 4.6 mph - N/A   Clear
9:35 PM 28.4 °F 23.3 °F 24.8 °F 86% 29.94 in 10.0 mi NNW 4.6 mph - N/A   Clear
9:55 PM 30.2 °F 22.6 °F 24.8 °F 80% 29.94 in 10.0 mi NNW 8.1 mph - N/A   Clear
10:15 PM 28.4 °F 21.2 °F 24.8 °F 86% 29.94 in 10.0 mi NW 6.9 mph - N/A   Clear
10:35 PM 30.2 °F 21.9 °F 24.8 °F 80% 29.95 in 10.0 mi NW 9.2 mph - N/A   Clear
10:55 PM 28.4 °F 21.2 °F 24.8 °F 86% 29.96 in 10.0 mi WNW 6.9 mph - N/A   Clear
11:15 PM 28.4 °F 24.6 °F 24.8 °F 86% 29.97 in 10.0 mi WNW 3.5 mph - N/A   Clear
11:35 PM 28.4 °F 23.3 °F 24.8 °F 86% 29.98 in 10.0 mi WNW 4.6 mph - N/A   Clear
11:55 PM 30.2 °F 26.7 °F 24.8 °F 80% 29.98 in 10.0 mi West 3.5 mph - N/A   Clear